New Prague, MN

10:33 AM CDT on April 28, 2015 (GMT -0500)
Flying Cloud | | Change Station
CLOSE
Current Station
Airport
Location: Minneapolis Flying Cloud,
Elevation: 906 ft
Nearby Weather Stations

Elev 906 ft 44.83 °N, 93.46 °W | Updated 40 minutes ago

Partly Cloudy
Partly Cloudy
56 °F
Feels Like 56 °F
N
8
Wind Variable Wind from North

Today
High -- | Low -- °F
--% Chance of Precip.
Yesterday
High -- | Low -- °F
Precip. -- in
6:09 AM 8:14 PM
Waxing Gibbous, 74% visible
Pressure 30.16 in
Visibility 10.0 miles
Clouds Few 12000 ft
Dew Point 37 °F
Humidity 49%
Rainfall 0.00 in
Snow Depth Not available.
UV 5 out of 12
Pollen 9.10 out of 12
Air Quality Not available.
Flu Activity Local Activity
METAR KFCM 281453Z 36007KT 10SM FEW120 13/03 A3015 RMK AO2 SLP211 T01330028 58001

More Conditions Fewer Conditions

Pressure 30.16 in
Visibility 10.0 miles
Clouds Few 12000 ft
Dew Point 37 °F
Humidity 49%
Rainfall 0.00 in
Snow Depth Not available.
UV 5 out of 12
Pollen 9.10 out of 12
Air Quality Not available.
Flu Activity Local Activity
METAR KFCM 281453Z 36007KT 10SM FEW120 13/03 A3015 RMK AO2 SLP211 T01330028 58001

More Conditions Fewer Conditions

10-Day Weather Forecast

Almanac

Astronomy

Apr. 28, 2015 Rise Set
Actual Time
Civil Twilight
Nautical Twilight
Astronomical Twilight
Moon
Length of Visible Light
Length of Day
Tomorrow will be .
, % of the Moon is Illuminated

Today's Extremes

State Highs State Lows

Community

WunderPhotos

Upload Photos

1,817,675 photos uploaded!

WunderBlogs® & News

Nearby

Air Quality

  Air Quality AQ Index Pollutant
Not available.

Snow Depth

Station Depth Elevation

Earthquake Activity

City Distance Mag. Time & Date
Minimum magnitude displayed is 2.5.

Coastal Water Temperatures

Place Temperature

Stations

Nearby Weather Stations

Station Location Temp. Windchill Dew Point Humidity Wind Precip. Elev Updated Type